AVA809 MGGT-MHTG
Flight info
| Callsign | AVA809 |
|---|---|
| Flight time | 0h 52m |
| Altitude | 31000 |
| Route | VILDA2 LAGOX UA552 NAGEL DCT VITAN VITAN1A |
| Aircraft | A320/M-SDE3FGHIRWY/LB1 |
Departure
| Time | 2026-05-09 01:58 |
|---|---|
| Airport | La Aurora International Airport (MGGT) |
Arrival
| Time | 2026-05-09 02:50 |
|---|---|
| Airport | Toncontín Airport (MHTG) |
| Time | Latitude | Longitude | Altitude | Speed | Heading |
|---|---|---|---|---|---|
| 2026-05-09 01:11 | 14.58897 | -90.52902 | 4900 ft | 0 kts | 288° |
| 2026-05-09 01:22 | 14.58894 | -90.52891 | 4896 ft | 4 kts | 284° |
| 2026-05-09 01:22 | 14.58889 | -90.52864 | 4892 ft | 4 kts | 274° |
| 2026-05-09 01:22 | 14.58889 | -90.52836 | 4896 ft | 4 kts | 262° |
| 2026-05-09 01:23 | 14.58895 | -90.52809 | 4897 ft | 4 kts | 246° |
| 2026-05-09 01:23 | 14.58909 | -90.52786 | 4894 ft | 4 kts | 221° |
| 2026-05-09 01:23 | 14.58925 | -90.52775 | 4898 ft | 0 kts | 197° |
| 2026-05-09 01:26 | 14.58923 | -90.52776 | 4898 ft | 0 kts | 204° |
| 2026-05-09 01:26 | 14.58910 | -90.52780 | 4901 ft | 2 kts | 189° |
| 2026-05-09 01:26 | 14.58907 | -90.52780 | 4901 ft | 0 kts | 191° |
| 2026-05-09 01:37 | 14.58862 | -90.52780 | 4899 ft | 14 kts | 167° |
| 2026-05-09 01:38 | 14.58803 | -90.52743 | 4892 ft | 11 kts | 136° |
| 2026-05-09 01:39 | 14.58782 | -90.52693 | 4897 ft | 10 kts | 96° |
| 2026-05-09 01:39 | 14.58784 | -90.52681 | 4899 ft | 0 kts | 80° |
| 2026-05-09 01:39 | 14.58784 | -90.52680 | 4899 ft | 1 kts | 77° |
| 2026-05-09 01:40 | 14.58831 | -90.52657 | 4899 ft | 3 kts | 17° |
| 2026-05-09 01:40 | 14.58838 | -90.52655 | 4895 ft | 3 kts | 17° |
| 2026-05-09 01:40 | 14.58933 | -90.52624 | 4895 ft | 20 kts | 17° |
| 2026-05-09 01:40 | 14.59061 | -90.52582 | 4905 ft | 18 kts | 18° |
| 2026-05-09 01:41 | 14.59151 | -90.52552 | 4911 ft | 9 kts | 18° |
| 2026-05-09 01:41 | 14.59220 | -90.52530 | 4912 ft | 16 kts | 17° |
| 2026-05-09 01:41 | 14.59358 | -90.52487 | 4917 ft | 21 kts | 18° |
| 2026-05-09 01:41 | 14.59442 | -90.52460 | 4920 ft | 8 kts | 17° |
| 2026-05-09 01:42 | 14.59464 | -90.52453 | 4920 ft | 0 kts | 18° |
| 2026-05-09 01:49 | 14.59465 | -90.52453 | 4920 ft | 1 kts | 18° |
| 2026-05-09 01:50 | 14.59514 | -90.52436 | 4921 ft | 9 kts | 18° |
| 2026-05-09 01:50 | 14.59559 | -90.52421 | 4922 ft | 5 kts | 19° |
| 2026-05-09 01:50 | 14.59566 | -90.52418 | 4925 ft | 0 kts | 31° |
| 2026-05-09 01:54 | 14.59573 | -90.52408 | 4923 ft | 7 kts | 59° |
| 2026-05-09 01:55 | 14.59562 | -90.52352 | 4925 ft | 8 kts | 160° |
| 2026-05-09 01:55 | 14.59511 | -90.52366 | 4923 ft | 0 kts | 198° |
| 2026-05-09 01:57 | 14.59263 | -90.52445 | 4915 ft | 77 kts | 197° |
| 2026-05-09 01:57 | 14.58526 | -90.52681 | 4889 ft | 141 kts | 197° |
| 2026-05-09 01:57 | 14.57435 | -90.53031 | 5024 ft | 176 kts | 197° |
| 2026-05-09 01:58 | 14.56282 | -90.53421 | 5803 ft | 181 kts | 200° |
| 2026-05-09 01:58 | 14.55034 | -90.53903 | 6246 ft | 196 kts | 200° |
| 2026-05-09 01:58 | 14.53745 | -90.54422 | 6646 ft | 204 kts | 194° |
| 2026-05-09 01:58 | 14.52294 | -90.54325 | 6783 ft | 224 kts | 158° |
| 2026-05-09 01:59 | 14.50801 | -90.53675 | 6991 ft | 247 kts | 156° |
| 2026-05-09 01:59 | 14.49145 | -90.52940 | 7248 ft | 271 kts | 155° |
| 2026-05-09 01:59 | 14.47368 | -90.52148 | 7750 ft | 283 kts | 155° |
| 2026-05-09 01:59 | 14.45547 | -90.51334 | 8464 ft | 286 kts | 155° |
| 2026-05-09 02:00 | 14.43640 | -90.50668 | 9144 ft | 293 kts | 164° |
| 2026-05-09 02:00 | 14.41624 | -90.50240 | 9878 ft | 298 kts | 168° |
| 2026-05-09 02:00 | 14.39546 | -90.49918 | 10357 ft | 311 kts | 170° |
| 2026-05-09 02:00 | 14.37318 | -90.49607 | 10514 ft | 334 kts | 170° |
| 2026-05-09 02:01 | 14.34950 | -90.49272 | 10784 ft | 350 kts | 170° |
| 2026-05-09 02:01 | 14.33341 | -90.49034 | 11147 ft | 353 kts | 170° |
| 2026-05-09 02:01 | 14.30900 | -90.48652 | 11755 ft | 357 kts | 169° |
| 2026-05-09 02:01 | 14.27636 | -90.48109 | 12592 ft | 360 kts | 169° |
| 2026-05-09 02:02 | 14.25158 | -90.47684 | 13198 ft | 363 kts | 169° |
| 2026-05-09 02:02 | 14.22655 | -90.47251 | 13804 ft | 366 kts | 169° |
| 2026-05-09 02:02 | 14.20955 | -90.46956 | 14116 ft | 368 kts | 169° |
| 2026-05-09 02:02 | 14.18424 | -90.46518 | 14629 ft | 371 kts | 169° |
| 2026-05-09 02:03 | 14.15896 | -90.46073 | 15143 ft | 374 kts | 167° |
| 2026-05-09 02:03 | 14.13498 | -90.45084 | 15653 ft | 375 kts | 144° |
| 2026-05-09 02:03 | 14.11708 | -90.43150 | 16124 ft | 376 kts | 120° |
| 2026-05-09 02:03 | 14.10872 | -90.40596 | 16591 ft | 379 kts | 95° |
| 2026-05-09 02:04 | 14.11162 | -90.37898 | 17057 ft | 382 kts | 70° |
| 2026-05-09 02:04 | 14.12532 | -90.35556 | 17534 ft | 386 kts | 46° |
| 2026-05-09 02:04 | 14.14711 | -90.34006 | 18009 ft | 390 kts | 22° |
| 2026-05-09 02:04 | 14.17317 | -90.33203 | 18451 ft | 393 kts | 17° |
| 2026-05-09 02:05 | 14.19786 | -90.32000 | 18825 ft | 394 kts | 36° |
| 2026-05-09 02:05 | 14.21870 | -90.30163 | 19276 ft | 396 kts | 47° |
| 2026-05-09 02:05 | 14.23739 | -90.28074 | 19722 ft | 396 kts | 49° |
| 2026-05-09 02:05 | 14.25588 | -90.25948 | 20144 ft | 398 kts | 49° |
| 2026-05-09 02:06 | 14.27521 | -90.23888 | 20527 ft | 402 kts | 46° |
| 2026-05-09 02:06 | 14.29580 | -90.21910 | 20926 ft | 405 kts | 43° |
| 2026-05-09 02:06 | 14.31706 | -90.20032 | 21293 ft | 408 kts | 41° |
| 2026-05-09 02:07 | 14.36161 | -90.16331 | 22081 ft | 414 kts | 40° |
| 2026-05-09 02:07 | 14.38413 | -90.14470 | 22423 ft | 416 kts | 40° |
| 2026-05-09 02:07 | 14.40673 | -90.12584 | 22798 ft | 419 kts | 41° |
| 2026-05-09 02:07 | 14.42942 | -90.10679 | 23160 ft | 422 kts | 39° |
| 2026-05-09 02:08 | 14.45515 | -90.09208 | 23493 ft | 429 kts | 19° |
| 2026-05-09 02:08 | 14.48483 | -90.08817 | 23798 ft | 435 kts | 356° |
| 2026-05-09 02:08 | 14.51426 | -90.09597 | 24058 ft | 441 kts | 334° |
| 2026-05-09 02:08 | 14.53914 | -90.11450 | 24347 ft | 445 kts | 312° |
| 2026-05-09 02:09 | 14.55588 | -90.14120 | 24653 ft | 446 kts | 291° |
| 2026-05-09 02:09 | 14.56227 | -90.17203 | 24962 ft | 445 kts | 271° |
| 2026-05-09 02:09 | 14.56017 | -90.20388 | 25220 ft | 446 kts | 257° |
| 2026-05-09 02:09 | 14.55022 | -90.23414 | 25496 ft | 445 kts | 240° |
| 2026-05-09 02:10 | 14.53282 | -90.26032 | 25771 ft | 443 kts | 225° |
| 2026-05-09 02:10 | 14.50931 | -90.28068 | 26068 ft | 441 kts | 210° |
| 2026-05-09 02:10 | 14.48155 | -90.29374 | 26356 ft | 439 kts | 194° |
| 2026-05-09 02:10 | 14.45144 | -90.29865 | 26624 ft | 437 kts | 179° |
| 2026-05-09 02:11 | 14.42140 | -90.29502 | 26913 ft | 436 kts | 163° |
| 2026-05-09 02:11 | 14.39360 | -90.28337 | 27159 ft | 436 kts | 148° |
| 2026-05-09 02:11 | 14.36966 | -90.26436 | 27431 ft | 437 kts | 134° |
| 2026-05-09 02:11 | 14.35137 | -90.23934 | 27644 ft | 439 kts | 118° |
| 2026-05-09 02:12 | 14.34017 | -90.21000 | 27914 ft | 442 kts | 103° |
| 2026-05-09 02:12 | 14.33707 | -90.17845 | 28202 ft | 445 kts | 89° |
| 2026-05-09 02:12 | 14.34178 | -90.14678 | 28426 ft | 449 kts | 79° |
| 2026-05-09 02:12 | 14.34838 | -90.11519 | 28689 ft | 451 kts | 79° |
| 2026-05-09 02:13 | 14.35501 | -90.08351 | 28931 ft | 454 kts | 79° |
| 2026-05-09 02:13 | 14.36166 | -90.05156 | 29199 ft | 455 kts | 79° |
| 2026-05-09 02:13 | 14.36831 | -90.01949 | 29441 ft | 457 kts | 80° |
| 2026-05-09 02:13 | 14.37492 | -89.98736 | 29685 ft | 458 kts | 79° |
| 2026-05-09 02:14 | 14.38144 | -89.95549 | 29927 ft | 460 kts | 79° |
| 2026-05-09 02:14 | 14.38807 | -89.92314 | 30177 ft | 461 kts | 79° |
| 2026-05-09 02:14 | 14.39472 | -89.89069 | 30381 ft | 463 kts | 79° |
| 2026-05-09 02:14 | 14.40142 | -89.85812 | 30591 ft | 464 kts | 79° |
| 2026-05-09 02:15 | 14.40816 | -89.82547 | 30861 ft | 464 kts | 79° |
| 2026-05-09 02:15 | 14.41484 | -89.79298 | 31029 ft | 463 kts | 79° |
| 2026-05-09 02:15 | 14.42146 | -89.76076 | 31077 ft | 454 kts | 79° |
| 2026-05-09 02:16 | 14.43313 | -89.69734 | 31075 ft | 447 kts | 86° |
| 2026-05-09 02:16 | 14.42880 | -89.63411 | 31054 ft | 445 kts | 100° |
| 2026-05-09 02:17 | 14.41853 | -89.57105 | 31054 ft | 445 kts | 100° |
| 2026-05-09 02:17 | 14.40844 | -89.50807 | 31040 ft | 446 kts | 99° |
| 2026-05-09 02:18 | 14.39829 | -89.44501 | 31042 ft | 445 kts | 99° |
| 2026-05-09 02:18 | 14.38822 | -89.38197 | 31029 ft | 445 kts | 99° |
| 2026-05-09 02:19 | 14.37803 | -89.31899 | 31025 ft | 445 kts | 100° |
| 2026-05-09 02:19 | 14.36775 | -89.25612 | 31023 ft | 445 kts | 100° |
| 2026-05-09 02:20 | 14.35760 | -89.19356 | 31007 ft | 445 kts | 99° |
| 2026-05-09 02:20 | 14.34740 | -89.13065 | 31009 ft | 444 kts | 99° |
| 2026-05-09 02:21 | 14.33717 | -89.06781 | 31002 ft | 444 kts | 99° |
| 2026-05-09 02:21 | 14.32684 | -89.00490 | 31001 ft | 444 kts | 99° |
| 2026-05-09 02:22 | 14.31658 | -88.94251 | 30998 ft | 444 kts | 99° |
| 2026-05-09 02:22 | 14.30620 | -88.87971 | 30986 ft | 444 kts | 99° |
| 2026-05-09 02:23 | 14.29589 | -88.81690 | 30976 ft | 444 kts | 99° |
| 2026-05-09 02:23 | 14.28560 | -88.75405 | 30972 ft | 445 kts | 99° |
| 2026-05-09 02:24 | 14.27527 | -88.69118 | 30975 ft | 445 kts | 99° |
| 2026-05-09 02:24 | 14.26473 | -88.62827 | 30974 ft | 445 kts | 102° |
| 2026-05-09 02:25 | 14.24316 | -88.56864 | 30974 ft | 445 kts | 115° |
| 2026-05-09 02:25 | 14.21669 | -88.51133 | 30975 ft | 445 kts | 115° |
| 2026-05-09 02:26 | 14.19028 | -88.45359 | 30954 ft | 446 kts | 115° |
| 2026-05-09 02:26 | 14.16377 | -88.39567 | 30952 ft | 446 kts | 115° |
| 2026-05-09 02:27 | 14.13714 | -88.33789 | 30953 ft | 446 kts | 115° |
| 2026-05-09 02:27 | 14.11042 | -88.28011 | 30932 ft | 447 kts | 115° |
| 2026-05-09 02:27 | 14.09702 | -88.25117 | 30224 ft | 449 kts | 115° |
| 2026-05-09 02:28 | 14.08375 | -88.22253 | 29557 ft | 447 kts | 115° |
| 2026-05-09 02:28 | 14.07045 | -88.19379 | 28969 ft | 442 kts | 115° |
| 2026-05-09 02:28 | 14.05726 | -88.16522 | 28369 ft | 438 kts | 115° |
| 2026-05-09 02:28 | 14.04427 | -88.13700 | 27784 ft | 434 kts | 115° |
| 2026-05-09 02:29 | 14.03141 | -88.10906 | 27213 ft | 430 kts | 115° |
| 2026-05-09 02:29 | 14.01859 | -88.08129 | 26651 ft | 426 kts | 115° |
| 2026-05-09 02:29 | 14.00611 | -88.05422 | 26098 ft | 422 kts | 115° |
| 2026-05-09 02:29 | 13.99348 | -88.02696 | 25555 ft | 419 kts | 115° |
| 2026-05-09 02:30 | 13.98093 | -87.99994 | 25024 ft | 415 kts | 115° |
| 2026-05-09 02:30 | 13.96849 | -87.97324 | 24504 ft | 411 kts | 115° |
| 2026-05-09 02:30 | 13.95619 | -87.94682 | 24013 ft | 407 kts | 115° |
| 2026-05-09 02:30 | 13.94401 | -87.92060 | 23462 ft | 404 kts | 115° |
| 2026-05-09 02:31 | 13.93201 | -87.89469 | 22955 ft | 399 kts | 115° |
| 2026-05-09 02:31 | 13.92013 | -87.86902 | 22482 ft | 393 kts | 115° |
| 2026-05-09 02:31 | 13.90846 | -87.84385 | 22021 ft | 388 kts | 115° |
| 2026-05-09 02:31 | 13.89701 | -87.81915 | 21571 ft | 384 kts | 115° |
| 2026-05-09 02:32 | 13.88556 | -87.79445 | 21117 ft | 380 kts | 114° |
| 2026-05-09 02:32 | 13.87672 | -87.76901 | 20649 ft | 376 kts | 102° |
| 2026-05-09 02:32 | 13.87337 | -87.74246 | 20191 ft | 373 kts | 90° |
| 2026-05-09 02:32 | 13.87551 | -87.71603 | 19712 ft | 370 kts | 78° |
| 2026-05-09 02:33 | 13.88253 | -87.69057 | 19245 ft | 369 kts | 71° |
| 2026-05-09 02:33 | 13.89058 | -87.66547 | 18767 ft | 368 kts | 71° |
| 2026-05-09 02:33 | 13.89853 | -87.64048 | 18286 ft | 368 kts | 71° |
| 2026-05-09 02:33 | 13.90649 | -87.61531 | 17753 ft | 368 kts | 71° |
| 2026-05-09 02:34 | 13.91440 | -87.59033 | 17262 ft | 366 kts | 71° |
| 2026-05-09 02:34 | 13.92226 | -87.56546 | 16802 ft | 364 kts | 71° |
| 2026-05-09 02:34 | 13.93009 | -87.54078 | 16357 ft | 362 kts | 71° |
| 2026-05-09 02:34 | 13.93781 | -87.51645 | 15895 ft | 361 kts | 71° |
| 2026-05-09 02:35 | 13.94562 | -87.49194 | 15434 ft | 360 kts | 72° |
| 2026-05-09 02:35 | 13.95342 | -87.46745 | 14966 ft | 358 kts | 72° |
| 2026-05-09 02:35 | 13.96118 | -87.44305 | 14509 ft | 357 kts | 72° |
| 2026-05-09 02:35 | 13.96887 | -87.41880 | 14043 ft | 356 kts | 72° |
| 2026-05-09 02:36 | 13.97655 | -87.39456 | 13558 ft | 355 kts | 72° |
| 2026-05-09 02:36 | 13.98420 | -87.37048 | 13071 ft | 352 kts | 72° |
| 2026-05-09 02:36 | 13.99176 | -87.34666 | 12594 ft | 349 kts | 72° |
| 2026-05-09 02:36 | 13.99925 | -87.32301 | 12120 ft | 346 kts | 71° |
| 2026-05-09 02:37 | 14.00665 | -87.29958 | 11646 ft | 343 kts | 71° |
| 2026-05-09 02:37 | 14.01388 | -87.27664 | 11172 ft | 329 kts | 71° |
| 2026-05-09 02:37 | 14.02073 | -87.25491 | 10724 ft | 316 kts | 70° |
| 2026-05-09 02:37 | 14.02748 | -87.23379 | 10374 ft | 301 kts | 68° |
| 2026-05-09 02:38 | 14.03821 | -87.21674 | 10317 ft | 274 kts | 37° |
| 2026-05-09 02:38 | 14.05472 | -87.20938 | 10216 ft | 253 kts | 2° |
| 2026-05-09 02:38 | 14.07137 | -87.21353 | 10104 ft | 249 kts | 328° |
| 2026-05-09 02:38 | 14.08476 | -87.22495 | 10010 ft | 252 kts | 315° |
| 2026-05-09 02:39 | 14.09657 | -87.23848 | 9757 ft | 256 kts | 312° |
| 2026-05-09 02:39 | 14.10808 | -87.25249 | 9406 ft | 255 kts | 312° |
| 2026-05-09 02:39 | 14.11955 | -87.26607 | 9093 ft | 254 kts | 314° |
| 2026-05-09 02:39 | 14.13143 | -87.27948 | 8787 ft | 253 kts | 315° |
| 2026-05-09 02:40 | 14.14359 | -87.29269 | 8473 ft | 253 kts | 316° |
| 2026-05-09 02:40 | 14.15531 | -87.30623 | 8159 ft | 255 kts | 302° |
| 2026-05-09 02:40 | 14.15972 | -87.32377 | 7851 ft | 258 kts | 263° |
| 2026-05-09 02:40 | 14.15339 | -87.34040 | 7464 ft | 252 kts | 224° |
| 2026-05-09 02:41 | 14.13887 | -87.34932 | 7159 ft | 242 kts | 186° |
| 2026-05-09 02:41 | 14.12313 | -87.34679 | 7002 ft | 229 kts | 146° |
| 2026-05-09 02:41 | 14.11161 | -87.33567 | 6974 ft | 231 kts | 131° |
| 2026-05-09 02:41 | 14.09989 | -87.32407 | 6974 ft | 235 kts | 144° |
| 2026-05-09 02:42 | 14.08668 | -87.31429 | 6972 ft | 233 kts | 137° |
| 2026-05-09 02:42 | 14.07615 | -87.30207 | 6976 ft | 223 kts | 124° |
| 2026-05-09 02:42 | 14.06757 | -87.28928 | 6975 ft | 212 kts | 123° |
| 2026-05-09 02:42 | 14.05958 | -87.27703 | 7031 ft | 197 kts | 123° |
| 2026-05-09 02:43 | 14.05234 | -87.26578 | 6993 ft | 181 kts | 123° |
| 2026-05-09 02:43 | 14.04538 | -87.25496 | 6642 ft | 185 kts | 123° |
| 2026-05-09 02:43 | 14.03904 | -87.24311 | 6169 ft | 194 kts | 103° |
| 2026-05-09 02:43 | 14.04072 | -87.22956 | 5744 ft | 198 kts | 64° |
| 2026-05-09 02:44 | 14.05105 | -87.22036 | 5273 ft | 221 kts | 25° |
| 2026-05-09 02:44 | 14.06714 | -87.21554 | 5784 ft | 252 kts | 17° |
| 2026-05-09 02:44 | 14.08478 | -87.21164 | 6682 ft | 260 kts | 12° |
| 2026-05-09 02:44 | 14.10239 | -87.20982 | 6893 ft | 250 kts | 6° |
| 2026-05-09 02:45 | 14.11972 | -87.20916 | 6964 ft | 248 kts | 3° |
| 2026-05-09 02:45 | 14.13695 | -87.20907 | 6980 ft | 247 kts | 2° |
| 2026-05-09 02:45 | 14.15415 | -87.20925 | 6985 ft | 247 kts | 2° |
| 2026-05-09 02:45 | 14.17135 | -87.20955 | 6992 ft | 247 kts | 2° |
| 2026-05-09 02:46 | 14.18820 | -87.20748 | 6991 ft | 244 kts | 23° |
| 2026-05-09 02:46 | 14.20389 | -87.20087 | 6981 ft | 244 kts | 24° |
| 2026-05-09 02:46 | 14.22049 | -87.19813 | 6980 ft | 250 kts | 354° |
| 2026-05-09 02:46 | 14.23677 | -87.20445 | 6979 ft | 254 kts | 323° |
| 2026-05-09 02:47 | 14.24786 | -87.21839 | 6977 ft | 254 kts | 292° |
| 2026-05-09 02:47 | 14.25136 | -87.23613 | 6981 ft | 253 kts | 271° |
| 2026-05-09 02:47 | 14.25182 | -87.25431 | 6963 ft | 254 kts | 269° |
| 2026-05-09 02:47 | 14.25071 | -87.27235 | 6959 ft | 251 kts | 252° |
| 2026-05-09 02:48 | 14.24366 | -87.28829 | 6959 ft | 246 kts | 227° |
| 2026-05-09 02:48 | 14.23053 | -87.29889 | 6761 ft | 239 kts | 203° |
| 2026-05-09 02:48 | 14.21530 | -87.30585 | 6399 ft | 240 kts | 198° |
| 2026-05-09 02:48 | 14.19990 | -87.31240 | 6063 ft | 239 kts | 199° |
| 2026-05-09 02:49 | 14.18437 | -87.31871 | 5716 ft | 240 kts | 199° |
| 2026-05-09 02:49 | 14.16888 | -87.32499 | 5385 ft | 239 kts | 198° |
| 2026-05-09 02:49 | 14.15336 | -87.33103 | 5029 ft | 239 kts | 195° |
| 2026-05-09 02:49 | 14.13686 | -87.33183 | 4631 ft | 238 kts | 171° |
| 2026-05-09 02:50 | 14.13567 | -87.33170 | 4562 ft | 0 kts | 178° |